createdAt,value
2018-05-11T00:02:52.135Z,19.73
2018-05-11T00:05:54.623Z,20.00
2018-05-11T00:08:57.115Z,19.73
2018-05-11T00:11:59.572Z,18.50
2018-05-11T00:15:02.216Z,19.00
2018-05-11T00:18:04.675Z,18.20
2018-05-11T00:21:07.237Z,17.77
2018-05-11T00:24:09.833Z,17.90
2018-05-11T00:27:12.305Z,18.10
2018-05-11T00:30:14.755Z,16.90
2018-05-11T00:33:17.284Z,17.80
2018-05-11T00:36:19.741Z,18.50
2018-05-11T00:39:22.302Z,17.00
2018-05-11T00:42:24.762Z,16.63
2018-05-11T00:45:27.252Z,15.27
2018-05-11T00:48:29.786Z,16.90
2018-05-11T00:51:32.248Z,16.53
2018-05-11T00:54:34.815Z,15.60
2018-05-11T00:57:37.273Z,14.77
2018-05-11T01:00:39.738Z,15.63
2018-05-11T01:03:42.239Z,15.73
2018-05-11T01:06:44.717Z,16.00
2018-05-11T01:09:47.226Z,14.80
2018-05-11T01:12:49.779Z,15.83
2018-05-11T01:15:52.257Z,15.97
2018-05-11T01:18:54.807Z,16.13
2018-05-11T01:21:57.369Z,15.80
2018-05-11T01:24:59.847Z,16.37
2018-05-11T01:28:02.399Z,16.17
2018-05-11T01:31:04.929Z,15.60
2018-05-11T01:34:07.415Z,17.27
2018-05-11T01:37:09.908Z,16.10
2018-05-11T01:40:12.437Z,17.40
2018-05-11T01:43:14.902Z,16.80
2018-05-11T01:46:17.462Z,17.30
2018-05-11T01:49:20.026Z,16.70
2018-05-11T01:52:22.589Z,17.53
2018-05-11T01:55:25.133Z,18.07
2018-05-11T01:58:27.635Z,17.80
2018-05-11T02:01:30.083Z,18.23
2018-05-11T02:04:32.537Z,18.40
2018-05-11T02:07:34.992Z,18.67
2018-05-11T02:10:37.473Z,19.50
2018-05-11T02:13:39.920Z,18.20
2018-05-11T02:16:42.469Z,18.80
2018-05-11T02:19:44.890Z,19.40
2018-05-11T02:22:47.499Z,19.77
2018-05-11T02:25:50.055Z,19.10
2018-05-11T02:28:52.495Z,17.90
2018-05-11T02:31:54.972Z,19.77
2018-05-11T02:34:57.441Z,19.17
2018-05-11T02:37:59.902Z,20.00
2018-05-11T02:41:02.468Z,19.27
2018-05-11T02:44:05.029Z,18.70
2018-05-11T02:47:07.532Z,19.43
2018-05-11T02:50:09.984Z,17.50
2018-05-11T02:53:12.496Z,18.63
2018-05-11T02:56:14.944Z,17.97
2018-05-11T02:59:17.438Z,19.23
2018-05-11T03:02:19.947Z,18.70
2018-05-11T03:05:22.406Z,18.30
2018-05-11T03:08:24.896Z,18.17
2018-05-11T03:11:27.379Z,18.30
2018-05-11T03:14:29.862Z,19.00
2018-05-11T03:17:32.402Z,18.63
2018-05-11T03:20:34.905Z,18.37
2018-05-11T03:23:37.430Z,18.77
2018-05-11T03:26:39.917Z,19.80
2018-05-11T03:29:42.397Z,18.57
2018-05-11T03:32:44.968Z,19.87
2018-05-11T03:35:47.480Z,19.03
2018-05-11T03:38:49.956Z,19.20
2018-05-11T03:41:52.490Z,19.27
2018-05-11T03:44:54.941Z,18.67
2018-05-11T03:47:57.419Z,19.40
2018-05-11T03:51:00.047Z,18.70
2018-05-11T03:54:02.435Z,18.90
2018-05-11T03:57:04.998Z,19.20
2018-05-11T04:00:07.437Z,18.73
2018-05-11T04:03:21.716Z,19.27
2018-05-11T04:06:35.956Z,20.23
2018-05-11T04:09:39.331Z,20.80
2018-05-11T04:12:41.794Z,19.97
2018-05-11T04:15:44.246Z,19.30
2018-05-11T04:18:46.701Z,20.13
2018-05-11T04:21:49.179Z,21.00
2018-05-11T04:24:51.676Z,19.77
2018-05-11T04:27:54.091Z,21.50
2018-05-11T04:30:56.584Z,20.70
2018-05-11T04:33:59.025Z,20.43
2018-05-11T04:37:01.502Z,22.37
2018-05-11T04:40:03.958Z,20.20
2018-05-11T04:43:06.474Z,21.40
2018-05-11T04:46:08.914Z,21.97
2018-05-11T04:49:11.400Z,22.57
2018-05-11T04:52:13.901Z,21.70
2018-05-11T04:55:16.363Z,21.97
2018-05-11T04:58:18.974Z,21.37
2018-05-11T05:01:21.510Z,21.77
2018-05-11T05:04:23.995Z,22.50
2018-05-11T05:07:26.436Z,20.93
2018-05-11T05:10:28.902Z,21.53
2018-05-11T05:13:31.376Z,21.00
2018-05-11T05:16:33.817Z,21.53
2018-05-11T05:19:36.313Z,21.80
2018-05-11T05:22:38.758Z,21.47
2018-05-11T05:25:41.274Z,23.27
2018-05-11T05:28:43.730Z,21.00
2018-05-11T05:31:46.304Z,22.10
2018-05-11T05:34:48.794Z,22.57
2018-05-11T05:37:51.294Z,23.17
2018-05-11T05:40:53.831Z,22.07
2018-05-11T05:43:56.389Z,22.83
2018-05-11T05:46:58.862Z,22.00
2018-05-11T05:50:01.387Z,22.50
2018-05-11T05:53:03.962Z,23.10
2018-05-11T05:56:06.440Z,22.13
2018-05-11T05:59:08.931Z,20.77
2018-05-11T06:02:11.451Z,21.70
2018-05-11T06:05:13.925Z,20.77
2018-05-11T06:08:16.660Z,20.23
2018-05-11T06:11:19.031Z,19.87
2018-05-11T06:14:21.564Z,17.63
2018-05-11T06:17:24.097Z,19.60
2018-05-11T06:20:26.584Z,19.40
2018-05-11T06:23:29.056Z,15.67
2018-05-11T06:26:31.520Z,14.70
2018-05-11T06:29:34.022Z,14.57
2018-05-11T06:32:36.530Z,14.03
2018-05-11T06:35:38.980Z,13.73
2018-05-11T06:38:41.462Z,14.20
2018-05-11T06:41:43.910Z,13.67
2018-05-11T06:44:46.526Z,14.20
2018-05-11T06:47:48.986Z,14.63
2018-05-11T06:50:51.481Z,13.53
2018-05-11T06:53:53.976Z,12.30
2018-05-11T06:56:56.420Z,13.07
2018-05-11T06:59:59.003Z,13.90
2018-05-11T07:03:01.456Z,13.13
2018-05-11T07:06:03.949Z,11.10
2018-05-11T07:09:06.449Z,10.27
2018-05-11T07:12:08.997Z,10.50
2018-05-11T07:15:11.545Z,10.93
2018-05-11T07:18:14.106Z,11.40
2018-05-11T07:21:16.568Z,11.30
2018-05-11T07:24:19.046Z,7.60
2018-05-11T07:27:21.522Z,9.60
2018-05-11T07:30:24.048Z,9.70
2018-05-11T07:33:26.609Z,9.30
2018-05-11T07:36:29.075Z,9.90
2018-05-11T07:39:31.574Z,10.73
2018-05-11T07:42:34.034Z,9.10
2018-05-11T07:45:36.650Z,9.10
2018-05-11T07:48:39.116Z,9.50
2018-05-11T07:51:41.654Z,9.40
2018-05-11T07:54:44.111Z,8.40
2018-05-11T07:57:46.720Z,5.33
2018-05-11T08:00:49.201Z,6.60
2018-05-11T08:03:51.749Z,5.30
2018-05-11T08:06:54.205Z,6.37
2018-05-11T08:09:56.750Z,5.73
2018-05-11T08:12:59.231Z,7.10
2018-05-11T08:16:01.793Z,8.40
2018-05-11T08:19:04.440Z,7.87
2018-05-11T08:22:06.919Z,7.20
2018-05-11T08:25:09.418Z,8.00
2018-05-11T08:28:11.916Z,7.00
2018-05-11T08:31:14.382Z,6.93
2018-05-11T08:34:17.017Z,8.77
2018-05-11T08:37:19.541Z,9.10
2018-05-11T08:40:22.034Z,8.77
2018-05-11T08:43:24.511Z,9.00
2018-05-11T08:46:26.981Z,8.73
2018-05-11T08:49:29.458Z,6.80
2018-05-11T08:52:31.924Z,6.63
2018-05-11T08:55:34.431Z,7.77
2018-05-11T08:58:36.906Z,7.47
2018-05-11T09:01:39.483Z,7.40
2018-05-11T09:04:42.063Z,7.53
2018-05-11T09:07:44.642Z,7.07
2018-05-11T09:10:47.153Z,7.50
2018-05-11T09:13:49.645Z,8.47
2018-05-11T09:16:52.207Z,8.20
2018-05-11T09:19:54.783Z,7.30
2018-05-11T09:22:57.305Z,8.47
2018-05-11T09:25:59.809Z,8.37
2018-05-11T09:29:02.314Z,8.10
2018-05-11T09:32:04.830Z,8.00
2018-05-11T09:35:07.279Z,7.97
2018-05-11T09:38:09.800Z,8.90
2018-05-11T09:41:12.244Z,7.80
2018-05-11T09:44:14.743Z,9.80
2018-05-11T09:47:18.023Z,9.57
2018-05-11T09:50:20.509Z,9.13
2018-05-11T09:53:23.064Z,9.10
2018-05-11T09:56:25.560Z,9.10
2018-05-11T09:59:28.153Z,9.80
2018-05-11T10:02:30.567Z,10.17
2018-05-11T10:05:33.124Z,12.33
2018-05-11T10:08:35.680Z,12.50
2018-05-11T10:11:38.238Z,11.40
2018-05-11T10:14:40.803Z,12.10
2018-05-11T10:17:43.307Z,14.97
2018-05-11T10:20:45.897Z,15.93
2018-05-11T10:23:48.309Z,16.83
2018-05-11T10:26:50.855Z,16.33
2018-05-11T10:29:53.509Z,16.37
2018-05-11T10:32:56.007Z,17.20
2018-05-11T10:35:58.536Z,16.80
2018-05-11T10:39:00.987Z,15.10
2018-05-11T10:42:03.482Z,15.30
2018-05-11T10:45:05.974Z,15.13
2018-05-11T10:48:08.579Z,15.00
2018-05-11T10:51:11.063Z,14.57
2018-05-11T10:54:13.648Z,13.50
2018-05-11T10:57:16.170Z,13.30
2018-05-11T11:00:18.644Z,14.67
2018-05-11T11:03:21.135Z,14.03
2018-05-11T11:06:23.623Z,14.00
2018-05-11T11:09:26.088Z,14.07
2018-05-11T11:12:28.576Z,13.60
2018-05-11T11:15:31.079Z,13.60
2018-05-11T11:18:33.583Z,12.70
2018-05-11T11:21:36.160Z,13.00
2018-05-11T11:24:38.726Z,14.00
2018-05-11T11:27:41.182Z,13.53
2018-05-11T11:30:43.687Z,12.57
2018-05-11T11:33:46.205Z,13.10
2018-05-11T11:36:48.734Z,12.40
2018-05-11T11:39:51.260Z,13.47
2018-05-11T11:42:53.734Z,13.03
2018-05-11T11:45:56.269Z,13.13
2018-05-11T11:48:58.749Z,13.80
2018-05-11T11:52:01.279Z,12.73
2018-05-11T11:55:03.841Z,13.70
2018-05-11T11:58:06.366Z,12.57
2018-05-11T12:01:08.984Z,12.10
2018-05-11T12:04:11.528Z,11.10
2018-05-11T12:07:14.020Z,12.30
2018-05-11T12:10:16.885Z,12.80
2018-05-11T12:13:19.528Z,13.17
2018-05-11T12:16:22.089Z,11.97
2018-05-11T12:19:24.608Z,10.97
2018-05-11T12:22:27.090Z,11.70
2018-05-11T12:25:29.674Z,10.93
2018-05-11T12:28:32.219Z,12.23
2018-05-11T12:31:34.737Z,12.07
2018-05-11T12:34:37.220Z,11.57
2018-05-11T12:37:39.738Z,10.70
2018-05-11T12:40:42.226Z,11.10
2018-05-11T12:43:44.705Z,11.27
2018-05-11T12:46:47.305Z,12.00
2018-05-11T12:49:49.869Z,12.20
2018-05-11T12:52:52.456Z,13.50
2018-05-11T12:55:54.898Z,12.10
2018-05-11T12:58:57.349Z,12.07
2018-05-11T13:01:59.861Z,12.20
2018-05-11T13:05:02.403Z,12.27
2018-05-11T13:08:04.899Z,11.80
2018-05-11T13:11:07.454Z,11.50
2018-05-11T13:14:10.061Z,12.53
2018-05-11T13:17:12.630Z,12.70
2018-05-11T13:20:15.125Z,12.00
2018-05-11T13:23:17.638Z,11.40
2018-05-11T13:26:20.211Z,12.27
2018-05-11T13:29:22.682Z,11.70
2018-05-11T13:32:25.175Z,10.90
2018-05-11T13:35:27.652Z,11.20
2018-05-11T13:38:30.265Z,12.00
2018-05-11T13:41:32.706Z,12.10
2018-05-11T13:44:35.287Z,11.23
2018-05-11T13:47:37.938Z,11.40
2018-05-11T13:50:40.464Z,12.03
2018-05-11T13:53:43.077Z,11.53
2018-05-11T13:56:45.523Z,11.40
2018-05-11T13:59:48.018Z,12.00
2018-05-11T14:02:50.429Z,11.40
2018-05-11T14:05:53.019Z,11.57
2018-05-11T14:08:55.515Z,12.20
2018-05-11T14:11:58.008Z,11.37
2018-05-11T14:15:00.512Z,11.67
2018-05-11T14:18:03.000Z,12.67
2018-05-11T14:21:05.475Z,10.57
2018-05-11T14:24:08.090Z,10.27
2018-05-11T14:27:10.741Z,9.70
2018-05-11T14:30:13.293Z,10.60
2018-05-11T14:33:15.866Z,10.80
2018-05-11T14:36:18.445Z,9.60
2018-05-11T14:39:21.094Z,9.30
2018-05-11T14:42:23.499Z,9.03
2018-05-11T14:45:26.008Z,9.37
2018-05-11T14:48:28.496Z,10.87
2018-05-11T14:51:30.986Z,10.40
2018-05-11T14:54:33.469Z,10.17
2018-05-11T14:57:35.976Z,9.90
2018-05-11T15:00:38.482Z,10.20
2018-05-11T15:03:40.971Z,10.03
2018-05-11T15:06:43.457Z,9.30
2018-05-11T15:09:46.017Z,10.30
2018-05-11T15:12:48.589Z,9.70
2018-05-11T15:15:51.092Z,9.67
2018-05-11T15:18:53.569Z,9.80
2018-05-11T15:21:56.051Z,9.90
2018-05-11T15:24:58.593Z,9.70
2018-05-11T15:28:01.121Z,9.90
2018-05-11T15:31:03.586Z,9.50
2018-05-11T15:34:06.112Z,9.47
2018-05-11T15:37:08.776Z,9.57
2018-05-11T15:40:11.340Z,10.70
2018-05-11T15:43:13.903Z,10.20
2018-05-11T15:46:16.386Z,9.37
2018-05-11T15:49:18.863Z,9.53
2018-05-11T15:52:21.396Z,7.77
2018-05-11T15:55:23.953Z,10.37
2018-05-11T15:58:26.557Z,9.77
2018-05-11T16:01:29.104Z,9.90
2018-05-11T16:04:31.643Z,7.77
2018-05-11T16:07:34.145Z,8.63
2018-05-11T16:10:36.612Z,8.73
2018-05-11T16:13:39.202Z,8.63
2018-05-11T16:16:41.801Z,8.60
2018-05-11T16:19:44.349Z,8.10
2018-05-11T16:22:46.858Z,6.70
2018-05-11T16:25:49.336Z,5.30
2018-05-11T16:28:51.827Z,6.03
2018-05-11T16:31:54.478Z,6.20
2018-05-11T16:34:56.963Z,6.13
2018-05-11T16:37:59.522Z,5.57
2018-05-11T16:41:01.992Z,5.77
2018-05-11T16:44:04.546Z,6.80
2018-05-11T16:47:07.108Z,5.30
2018-05-11T16:50:09.667Z,5.33
2018-05-11T16:53:12.071Z,6.40
2018-05-11T16:56:14.887Z,6.13
2018-05-11T16:59:17.386Z,8.20
2018-05-11T17:02:19.922Z,7.93
2018-05-11T17:05:22.487Z,7.70
2018-05-11T17:08:25.007Z,6.07
2018-05-11T17:11:27.481Z,5.77
2018-05-11T17:14:30.072Z,8.47
2018-05-11T17:17:32.632Z,8.13
2018-05-11T17:20:35.097Z,7.43
2018-05-11T17:23:37.609Z,7.10
2018-05-11T17:26:40.059Z,8.03
2018-05-11T17:29:42.682Z,7.80
2018-05-11T17:32:45.177Z,7.70
2018-05-11T17:35:47.667Z,7.27
2018-05-11T17:38:50.168Z,6.80
2018-05-11T17:41:52.664Z,6.00
2018-05-11T17:44:55.104Z,7.13
2018-05-11T17:47:57.619Z,6.30
2018-05-11T17:51:00.367Z,5.53
2018-05-11T17:54:04.213Z,5.50
2018-05-11T17:57:06.791Z,5.40
2018-05-11T18:00:09.407Z,5.23
2018-05-11T18:03:11.976Z,5.80
2018-05-11T18:06:14.423Z,5.90
2018-05-11T18:09:16.936Z,5.50
2018-05-11T18:12:19.428Z,5.60
2018-05-11T18:15:21.938Z,6.30
2018-05-11T18:18:24.505Z,6.20
2018-05-11T18:21:27.072Z,7.90
2018-05-11T18:24:29.552Z,6.57
2018-05-11T18:27:32.048Z,6.80
2018-05-11T18:30:34.541Z,6.93
2018-05-11T18:33:37.029Z,7.17
2018-05-11T18:36:39.475Z,6.80
2018-05-11T18:39:41.977Z,6.90
2018-05-11T18:42:44.597Z,6.70
2018-05-11T18:45:47.158Z,7.50
2018-05-11T18:48:49.665Z,7.10
2018-05-11T18:51:52.120Z,6.57
2018-05-11T18:54:54.611Z,6.60
2018-05-11T18:57:57.059Z,6.33
2018-05-11T19:00:59.560Z,6.70
2018-05-11T19:04:02.125Z,6.20
2018-05-11T19:07:04.634Z,6.60
2018-05-11T19:10:07.138Z,6.13
2018-05-11T19:13:09.643Z,6.17
2018-05-11T19:16:12.123Z,7.00
2018-05-11T19:19:14.664Z,6.13
2018-05-11T19:22:17.173Z,7.07
2018-05-11T19:25:19.638Z,6.30
2018-05-11T19:28:22.219Z,6.90
2018-05-11T19:31:24.758Z,7.00
2018-05-11T19:34:27.244Z,6.50
2018-05-11T19:37:29.834Z,6.40
2018-05-11T19:40:32.354Z,7.27
2018-05-11T19:43:34.842Z,7.23
2018-05-11T19:46:37.316Z,6.37
2018-05-11T19:49:39.836Z,7.27
2018-05-11T19:52:42.428Z,7.70
2018-05-11T19:55:45.086Z,8.27
2018-05-11T19:58:47.567Z,8.57
2018-05-11T20:01:50.085Z,9.27
2018-05-11T20:04:52.625Z,10.37
2018-05-11T20:07:55.109Z,10.00
2018-05-11T20:10:57.709Z,10.30
2018-05-11T20:14:00.161Z,11.77
2018-05-11T20:17:02.700Z,12.00
2018-05-11T20:20:05.234Z,12.23
2018-05-11T20:23:08.272Z,12.00
2018-05-11T20:26:10.816Z,13.70
2018-05-11T20:29:13.369Z,13.60
2018-05-11T20:32:15.860Z,12.80
2018-05-11T20:35:18.395Z,13.93
2018-05-11T20:38:20.921Z,13.47
2018-05-11T20:41:23.520Z,13.33
2018-05-11T20:44:26.187Z,14.20
2018-05-11T20:47:28.699Z,14.43
2018-05-11T20:50:31.227Z,14.40
2018-05-11T20:53:33.800Z,13.53
2018-05-11T20:56:36.281Z,13.30
2018-05-11T20:59:38.906Z,13.87
2018-05-11T21:02:41.437Z,14.17
2018-05-11T21:05:43.947Z,13.60
2018-05-11T21:08:46.416Z,14.20
2018-05-11T21:11:48.960Z,15.30
2018-05-11T21:14:51.455Z,15.33
2018-05-11T21:17:53.973Z,14.50
2018-05-11T21:20:56.482Z,15.17
2018-05-11T21:23:58.979Z,15.10
2018-05-11T21:27:01.482Z,15.00
2018-05-11T21:30:03.952Z,14.90
2018-05-11T21:33:06.470Z,13.87
2018-05-11T21:36:08.999Z,13.50
2018-05-11T21:39:11.515Z,13.97
2018-05-11T21:42:14.094Z,13.40
2018-05-11T21:45:16.599Z,14.53
2018-05-11T21:48:19.121Z,15.27
2018-05-11T21:51:21.525Z,14.40
2018-05-11T21:54:24.036Z,14.03
2018-05-11T21:57:26.541Z,15.47
2018-05-11T22:00:29.061Z,14.80
2018-05-11T22:03:31.557Z,14.80
2018-05-11T22:06:34.156Z,14.70
2018-05-11T22:09:36.830Z,15.87
2018-05-11T22:12:39.302Z,15.83
2018-05-11T22:15:41.940Z,16.67
2018-05-11T22:18:44.458Z,14.50
2018-05-11T22:21:46.955Z,15.10
2018-05-11T22:24:49.488Z,16.03
2018-05-11T22:27:51.959Z,15.13
2018-05-11T22:30:57.584Z,15.90
2018-05-11T22:34:00.131Z,15.40
2018-05-11T22:37:02.621Z,15.50
2018-05-11T22:40:06.181Z,15.97
2018-05-11T22:43:09.230Z,15.60
2018-05-11T22:46:11.675Z,14.80
2018-05-11T22:49:15.067Z,14.80
2018-05-11T22:52:17.633Z,14.97
2018-05-11T22:55:21.295Z,13.73
2018-05-11T22:58:23.731Z,14.63
2018-05-11T23:01:26.340Z,14.47
2018-05-11T23:04:29.034Z,16.20
2018-05-11T23:07:31.539Z,15.87
2018-05-11T23:10:34.047Z,15.53
2018-05-11T23:13:36.550Z,15.37
2018-05-11T23:16:38.984Z,14.60
2018-05-11T23:19:41.567Z,15.33
2018-05-11T23:22:44.025Z,15.77
2018-05-11T23:25:46.499Z,15.40
2018-05-11T23:28:49.007Z,15.20
2018-05-11T23:31:51.540Z,14.70
2018-05-11T23:34:54.927Z,14.20
2018-05-11T23:37:57.471Z,13.80
2018-05-11T23:40:59.947Z,14.77
2018-05-11T23:44:02.511Z,13.43
2018-05-11T23:47:05.075Z,14.13
2018-05-11T23:50:07.574Z,14.83
2018-05-11T23:53:10.008Z,14.93
2018-05-11T23:56:12.553Z,14.93
2018-05-11T23:59:15.036Z,13.60
